sensor_id;sensor_type;location;lat;lon;timestamp;pressure;altitude;pressure_sealevel;temperature;humidity
56630;BME280;42502;40.732;-74.254;2022-08-19T00:01:00;100341.84;;;31.62;31.58
56630;BME280;42502;40.732;-74.254;2022-08-19T00:03:02;100330.56;;;31.55;31.73
56630;BME280;42502;40.732;-74.254;2022-08-19T00:05:04;100345.97;;;31.61;32.11
56630;BME280;42502;40.732;-74.254;2022-08-19T00:07:06;100349.63;;;31.62;32.15
56630;BME280;42502;40.732;-74.254;2022-08-19T00:09:09;100346.75;;;31.62;31.78
56630;BME280;42502;40.732;-74.254;2022-08-19T00:11:11;100346.75;;;31.62;31.56
56630;BME280;42502;40.732;-74.254;2022-08-19T00:13:12;100351.25;;;31.63;31.72
56630;BME280;42502;40.732;-74.254;2022-08-19T00:15:19;100355.34;;;31.62;31.79
56630;BME280;42502;40.732;-74.254;2022-08-19T00:17:20;100352.47;;;31.62;31.77
56630;BME280;42502;40.732;-74.254;2022-08-19T00:19:22;100348.81;;;31.61;31.61
56630;BME280;42502;40.732;-74.254;2022-08-19T00:21:25;100352.47;;;31.62;31.83
56630;BME280;42502;40.732;-74.254;2022-08-19T00:23:29;100363.91;;;31.62;32.06
56630;BME280;42502;40.732;-74.254;2022-08-19T00:25:33;100350.94;;;31.57;31.82
56630;BME280;42502;40.732;-74.254;2022-08-19T00:27:34;100355.78;;;31.60;32.01
56630;BME280;42502;40.732;-74.254;2022-08-19T00:29:35;100345.22;;;31.57;32.07
56630;BME280;42502;40.732;-74.254;2022-08-19T00:31:36;100358.97;;;31.62;31.71
56630;BME280;42502;40.732;-74.254;2022-08-19T00:33:37;100357.38;;;31.61;31.85
56630;BME280;42502;40.732;-74.254;2022-08-19T00:35:38;100355.03;;;31.56;31.76
56630;BME280;42502;40.732;-74.254;2022-08-19T00:37:39;100360.25;;;31.61;31.72
56630;BME280;42502;40.732;-74.254;2022-08-19T00:39:43;100363.09;;;31.61;32.13
56630;BME280;42502;40.732;-74.254;2022-08-19T00:41:45;100363.09;;;31.61;31.73
56630;BME280;42502;40.732;-74.254;2022-08-19T00:44:02;100365.53;;;31.63;32.12
56630;BME280;42502;40.732;-74.254;2022-08-19T00:46:03;100363.38;;;31.67;32.15
56630;BME280;42502;40.732;-74.254;2022-08-19T00:48:05;100376.84;;;31.66;31.95
56630;BME280;42502;40.732;-74.254;2022-08-19T00:50:08;100379.63;;;31.70;31.64
56630;BME280;42502;40.732;-74.254;2022-08-19T00:52:14;100381.69;;;31.69;31.94
56630;BME280;42502;40.732;-74.254;2022-08-19T00:54:16;100380.44;;;31.70;32.06
56630;BME280;42502;40.732;-74.254;2022-08-19T00:56:17;100381.78;;;31.66;31.60
56630;BME280;42502;40.732;-74.254;2022-08-19T00:58:20;100396.75;;;31.70;31.99
56630;BME280;42502;40.732;-74.254;2022-08-19T01:00:25;100393.91;;;31.70;32.08
56630;BME280;42502;40.732;-74.254;2022-08-19T01:02:26;100401.69;;;31.69;31.88
56630;BME280;42502;40.732;-74.254;2022-08-19T01:04:30;100397.63;;;31.67;32.09
56630;BME280;42502;40.732;-74.254;2022-08-19T01:06:32;100408.63;;;31.68;31.71
56630;BME280;42502;40.732;-74.254;2022-08-19T01:08:33;100402.19;;;31.64;31.55
56630;BME280;42502;40.732;-74.254;2022-08-19T01:10:40;100407.09;;;31.64;31.68
56630;BME280;42502;40.732;-74.254;2022-08-19T01:12:42;100413.63;;;31.64;31.58
56630;BME280;42502;40.732;-74.254;2022-08-19T01:14:43;100424.22;;;31.64;31.67
56630;BME280;42502;40.732;-74.254;2022-08-19T01:16:45;100436.38;;;31.68;31.84
56630;BME280;42502;40.732;-74.254;2022-08-19T01:18:47;100439.66;;;31.66;31.72
56630;BME280;42502;40.732;-74.254;2022-08-19T01:20:50;100428.25;;;31.66;31.83
56630;BME280;42502;40.732;-74.254;2022-08-19T01:22:57;100439.66;;;31.66;31.70
56630;BME280;42502;40.732;-74.254;2022-08-19T01:24:59;100446.19;;;31.67;31.82
56630;BME280;42502;40.732;-74.254;2022-08-19T01:26:59;100430.38;;;31.62;31.48
56630;BME280;42502;40.732;-74.254;2022-08-19T01:29:00;100450.31;;;31.66;31.41
56630;BME280;42502;40.732;-74.254;2022-08-19T01:31:02;100449.47;;;31.65;31.89
56630;BME280;42502;40.732;-74.254;2022-08-19T01:33:03;100453.59;;;31.64;31.76
56630;BME280;42502;40.732;-74.254;2022-08-19T01:35:06;100444.63;;;31.62;31.09
56630;BME280;42502;40.732;-74.254;2022-08-19T01:37:10;100454.44;;;31.38;30.60
56630;BME280;42502;40.732;-74.254;2022-08-19T01:39:15;100445.72;;;30.97;30.22
56630;BME280;42502;40.732;-74.254;2022-08-19T01:41:17;100464.81;;;30.77;29.63
56630;BME280;42502;40.732;-74.254;2022-08-19T01:43:19;100451.78;;;30.48;29.32
56630;BME280;42502;40.732;-74.254;2022-08-19T01:45:22;100448.41;;;30.26;28.95
56630;BME280;42502;40.732;-74.254;2022-08-19T01:47:23;100454.06;;;29.95;29.17
56630;BME280;42502;40.732;-74.254;2022-08-19T01:49:25;100455.91;;;29.75;29.08
56630;BME280;42502;40.732;-74.254;2022-08-19T01:51:27;100457.22;;;29.67;28.29
56630;BME280;42502;40.732;-74.254;2022-08-19T01:53:28;100454.22;;;29.43;28.07
56630;BME280;42502;40.732;-74.254;2022-08-19T01:55:29;100450.31;;;29.26;28.30
56630;BME280;42502;40.732;-74.254;2022-08-19T01:57:30;100453.63;;;29.17;28.04
56630;BME280;42502;40.732;-74.254;2022-08-19T01:59:31;100459.34;;;29.10;27.63
56630;BME280;42502;40.732;-74.254;2022-08-19T02:01:33;100453.75;;;28.99;27.88
56630;BME280;42502;40.732;-74.254;2022-08-19T02:03:34;100443.31;;;28.85;27.69
56630;BME280;42502;40.732;-74.254;2022-08-19T02:05:36;100457.94;;;28.80;27.74
56630;BME280;42502;40.732;-74.254;2022-08-19T02:07:38;100463.72;;;28.69;27.56
56630;BME280;42502;40.732;-74.254;2022-08-19T02:09:39;100457.34;;;28.47;27.14
56630;BME280;42502;40.732;-74.254;2022-08-19T02:11:41;100470.78;;;28.40;27.37
56630;BME280;42502;40.732;-74.254;2022-08-19T02:13:42;100477.34;;;28.26;26.97
56630;BME280;42502;40.732;-74.254;2022-08-19T02:15:43;100468.50;;;28.02;27.46
56630;BME280;42502;40.732;-74.254;2022-08-19T02:17:44;100472.16;;;27.99;27.10
56630;BME280;42502;40.732;-74.254;2022-08-19T02:19:45;100471.75;;;27.90;27.28
56630;BME280;42502;40.732;-74.254;2022-08-19T02:21:46;100470.59;;;27.69;27.57
56630;BME280;42502;40.732;-74.254;2022-08-19T02:23:47;100476.31;;;27.62;27.40
56630;BME280;42502;40.732;-74.254;2022-08-19T02:25:48;100484.03;;;27.47;27.29
56630;BME280;42502;40.732;-74.254;2022-08-19T02:27:49;100487.25;;;27.38;27.60
56630;BME280;42502;40.732;-74.254;2022-08-19T02:29:50;100488.47;;;27.30;27.24
56630;BME280;42502;40.732;-74.254;2022-08-19T02:31:51;100493.31;;;27.19;27.66
56630;BME280;42502;40.732;-74.254;2022-08-19T02:33:52;100492.91;;;27.17;27.54
56630;BME280;42502;40.732;-74.254;2022-08-19T02:35:53;100486.00;;;26.96;27.35
56630;BME280;42502;40.732;-74.254;2022-08-19T02:37:54;100503.81;;;26.93;27.27
56630;BME280;42502;40.732;-74.254;2022-08-19T02:40:14;100502.59;;;26.76;27.55
56630;BME280;42502;40.732;-74.254;2022-08-19T02:42:15;100506.63;;;26.75;27.98
56630;BME280;42502;40.732;-74.254;2022-08-19T02:44:16;100500.16;;;26.85;28.12
56630;BME280;42502;40.732;-74.254;2022-08-19T02:46:21;100503.00;;;26.82;27.93
56630;BME280;42502;40.732;-74.254;2022-08-19T02:48:24;100505.38;;;26.65;27.89
56630;BME280;42502;40.732;-74.254;2022-08-19T02:50:25;100500.50;;;26.62;27.45
56630;BME280;42502;40.732;-74.254;2022-08-19T02:52:26;100498.81;;;26.39;27.55
56630;BME280;42502;40.732;-74.254;2022-08-19T02:54:28;100497.97;;;26.32;27.54
56630;BME280;42502;40.732;-74.254;2022-08-19T02:56:34;100502.81;;;26.24;27.78
56630;BME280;42502;40.732;-74.254;2022-08-19T02:58:36;100502.34;;;26.15;27.50
56630;BME280;42502;40.732;-74.254;2022-08-19T03:00:42;100506.78;;;26.12;27.41
56630;BME280;42502;40.732;-74.254;2022-08-19T03:02:42;100501.00;;;25.94;27.19
56630;BME280;42502;40.732;-74.254;2022-08-19T03:04:43;100507.84;;;25.89;27.38
56630;BME280;42502;40.732;-74.254;2022-08-19T03:06:45;100521.19;;;25.89;27.17
56630;BME280;42502;40.732;-74.254;2022-08-19T03:08:47;100521.94;;;25.82;27.19
56630;BME280;42502;40.732;-74.254;2022-08-19T03:10:49;100514.56;;;25.63;27.41
56630;BME280;42502;40.732;-74.254;2022-08-19T03:12:52;100518.56;;;25.59;27.26
56630;BME280;42502;40.732;-74.254;2022-08-19T03:14:52;100520.53;;;25.51;27.36
56630;BME280;42502;40.732;-74.254;2022-08-19T03:16:53;100506.00;;;25.56;27.57
56630;BME280;42502;40.732;-74.254;2022-08-19T03:18:56;100509.44;;;25.83;27.51
56630;BME280;42502;40.732;-74.254;2022-08-19T03:20:57;100508.38;;;26.06;27.65
56630;BME280;42502;40.732;-74.254;2022-08-19T03:22:58;100499.53;;;26.22;27.91
56630;BME280;42502;40.732;-74.254;2022-08-19T03:25:02;100502.84;;;26.35;27.69
56630;BME280;42502;40.732;-74.254;2022-08-19T03:27:02;100507.75;;;26.49;27.54
56630;BME280;42502;40.732;-74.254;2022-08-19T03:29:05;100515.88;;;26.61;27.84
56630;BME280;42502;40.732;-74.254;2022-08-19T03:31:17;100513.09;;;26.68;28.02
56630;BME280;42502;40.732;-74.254;2022-08-19T03:33:18;100520.78;;;26.75;27.99
56630;BME280;42502;40.732;-74.254;2022-08-19T03:35:19;100524.03;;;26.84;28.01
56630;BME280;42502;40.732;-74.254;2022-08-19T03:37:20;100520.44;;;26.91;28.48
56630;BME280;42502;40.732;-74.254;2022-08-19T03:39:24;100527.31;;;26.93;28.67
56630;BME280;42502;40.732;-74.254;2022-08-19T03:41:35;100520.03;;;27.00;28.98
56630;BME280;42502;40.732;-74.254;2022-08-19T03:43:38;100526.53;;;27.07;28.64
56630;BME280;42502;40.732;-74.254;2022-08-19T03:45:39;100525.31;;;27.12;28.98
56630;BME280;42502;40.732;-74.254;2022-08-19T03:47:40;100519.25;;;27.13;28.91
56630;BME280;42502;40.732;-74.254;2022-08-19T03:49:41;100523.69;;;27.22;28.81
56630;BME280;42502;40.732;-74.254;2022-08-19T03:51:42;100520.88;;;27.22;29.21
56630;BME280;42502;40.732;-74.254;2022-08-19T03:53:43;100535.84;;;27.29;29.42
56630;BME280;42502;40.732;-74.254;2022-08-19T03:55:46;100529.38;;;27.29;29.15
56630;BME280;42502;40.732;-74.254;2022-08-19T03:57:50;100545.19;;;27.37;29.03
56630;BME280;42502;40.732;-74.254;2022-08-19T03:59:53;100540.75;;;27.36;29.04
56630;BME280;42502;40.732;-74.254;2022-08-19T04:01:59;100544.81;;;27.42;29.29
56630;BME280;42502;40.732;-74.254;2022-08-19T04:04:01;100543.19;;;27.48;29.64
56630;BME280;42502;40.732;-74.254;2022-08-19T04:06:17;100542.78;;;27.50;29.23
56630;BME280;42502;40.732;-74.254;2022-08-19T04:08:18;100551.69;;;27.56;29.63
56630;BME280;42502;40.732;-74.254;2022-08-19T04:10:20;100551.69;;;27.59;29.37
56630;BME280;42502;40.732;-74.254;2022-08-19T04:12:24;100546.81;;;27.60;29.30
56630;BME280;42502;40.732;-74.254;2022-08-19T04:14:28;100551.69;;;27.63;29.49
56630;BME280;42502;40.732;-74.254;2022-08-19T04:16:32;100549.25;;;27.69;29.84
56630;BME280;42502;40.732;-74.254;2022-08-19T04:18:33;100556.53;;;27.73;29.51
56630;BME280;42502;40.732;-74.254;2022-08-19T04:20:47;100553.69;;;27.73;29.88
56630;BME280;42502;40.732;-74.254;2022-08-19T04:22:48;100556.13;;;27.78;29.82
56630;BME280;42502;40.732;-74.254;2022-08-19T04:24:52;100550.06;;;27.76;29.49
56630;BME280;42502;40.732;-74.254;2022-08-19T04:26:53;100548.84;;;27.77;29.85
56630;BME280;42502;40.732;-74.254;2022-08-19T04:28:54;100552.47;;;27.85;29.80
56630;BME280;42502;40.732;-74.254;2022-08-19T04:31:01;100543.97;;;27.85;29.52
56630;BME280;42502;40.732;-74.254;2022-08-19T04:33:02;100555.72;;;27.91;29.72
56630;BME280;42502;40.732;-74.254;2022-08-19T04:35:02;100553.25;;;27.89;29.46
56630;BME280;42502;40.732;-74.254;2022-08-19T04:37:06;100558.16;;;27.96;29.93
56630;BME280;42502;40.732;-74.254;2022-08-19T04:39:20;100556.50;;;27.95;29.61
56630;BME280;42502;40.732;-74.254;2022-08-19T04:41:22;100560.97;;;27.99;29.59
56630;BME280;42502;40.732;-74.254;2022-08-19T04:43:41;100570.31;;;28.00;29.50
56630;BME280;42502;40.732;-74.254;2022-08-19T04:45:48;100564.63;;;28.04;29.96
56630;BME280;42502;40.732;-74.254;2022-08-19T04:47:49;100564.63;;;28.07;29.77
56630;BME280;42502;40.732;-74.254;2022-08-19T04:49:53;100567.88;;;28.09;29.64
56630;BME280;42502;40.732;-74.254;2022-08-19T04:51:56;100566.63;;;28.10;29.87
56630;BME280;42502;40.732;-74.254;2022-08-19T04:53:57;100559.34;;;28.06;29.64
56630;BME280;42502;40.732;-74.254;2022-08-19T04:56:02;100561.75;;;28.14;30.19
56630;BME280;42502;40.732;-74.254;2022-08-19T04:58:04;100567.03;;;28.16;29.67
56630;BME280;42502;40.732;-74.254;2022-08-19T05:00:06;100559.72;;;28.15;30.07
56630;BME280;42502;40.732;-74.254;2022-08-19T05:02:08;100568.63;;;28.21;29.79
56630;BME280;42502;40.732;-74.254;2022-08-19T05:04:09;100563.78;;;28.17;29.85
56630;BME280;42502;40.732;-74.254;2022-08-19T05:06:13;100560.53;;;28.23;29.95
56630;BME280;42502;40.732;-74.254;2022-08-19T05:08:16;100572.28;;;28.25;30.16
56630;BME280;42502;40.732;-74.254;2022-08-19T05:10:20;100567.00;;;28.27;29.96
56630;BME280;42502;40.732;-74.254;2022-08-19T05:12:21;100563.75;;;28.28;30.26
56630;BME280;42502;40.732;-74.254;2022-08-19T05:14:28;100560.91;;;28.28;30.15
56630;BME280;42502;40.732;-74.254;2022-08-19T05:16:29;100558.06;;;28.32;30.42
56630;BME280;42502;40.732;-74.254;2022-08-19T05:18:30;100559.31;;;28.27;30.29
56630;BME280;42502;40.732;-74.254;2022-08-19T05:20:49;100571.03;;;28.33;30.32
56630;BME280;42502;40.732;-74.254;2022-08-19T05:23:10;100569.00;;;28.37;30.04
56630;BME280;42502;40.732;-74.254;2022-08-19T05:25:15;100568.59;;;28.39;30.17
56630;BME280;42502;40.732;-74.254;2022-08-19T05:27:19;100565.34;;;28.36;30.17
56630;BME280;42502;40.732;-74.254;2022-08-19T05:29:20;100571.41;;;28.42;29.96
56630;BME280;42502;40.732;-74.254;2022-08-19T05:31:21;100564.53;;;28.40;30.25
56630;BME280;42502;40.732;-74.254;2022-08-19T05:33:22;100564.94;;;28.38;30.50
56630;BME280;42502;40.732;-74.254;2022-08-19T05:35:24;100570.19;;;28.43;30.63
56630;BME280;42502;40.732;-74.254;2022-08-19T05:37:25;100574.25;;;28.46;30.45
56630;BME280;42502;40.732;-74.254;2022-08-19T05:39:29;100574.25;;;28.42;30.23
56630;BME280;42502;40.732;-74.254;2022-08-19T05:41:30;100582.75;;;28.49;30.39
56630;BME280;42502;40.732;-74.254;2022-08-19T05:43:31;100585.59;;;28.49;30.35
56630;BME280;42502;40.732;-74.254;2022-08-19T05:45:39;100580.69;;;28.50;30.22
56630;BME280;42502;40.732;-74.254;2022-08-19T05:47:42;100590.44;;;28.52;30.38
56630;BME280;42502;40.732;-74.254;2022-08-19T05:49:50;100591.69;;;28.51;30.44
56630;BME280;42502;40.732;-74.254;2022-08-19T05:51:51;100595.72;;;28.54;30.24
56630;BME280;42502;40.732;-74.254;2022-08-19T05:53:52;100586.78;;;28.56;30.33
56630;BME280;42502;40.732;-74.254;2022-08-19T05:55:56;100589.63;;;28.56;30.11
56630;BME280;42502;40.732;-74.254;2022-08-19T05:57:57;100591.66;;;28.55;30.09
56630;BME280;42502;40.732;-74.254;2022-08-19T05:59:57;100592.88;;;28.58;30.49
56630;BME280;42502;40.732;-74.254;2022-08-19T06:02:04;100592.50;;;28.59;30.49
56630;BME280;42502;40.732;-74.254;2022-08-19T06:04:06;100590.47;;;28.60;30.31
56630;BME280;42502;40.732;-74.254;2022-08-19T06:06:07;100594.09;;;28.60;30.56
56630;BME280;42502;40.732;-74.254;2022-08-19T06:08:09;100587.63;;;28.60;30.22
56630;BME280;42502;40.732;-74.254;2022-08-19T06:10:11;100600.59;;;28.61;30.35
56630;BME280;42502;40.732;-74.254;2022-08-19T06:12:12;100597.78;;;28.61;30.28
56630;BME280;42502;40.732;-74.254;2022-08-19T06:14:17;100606.69;;;28.63;30.19
56630;BME280;42502;40.732;-74.254;2022-08-19T06:16:19;100609.09;;;28.64;30.44
56630;BME280;42502;40.732;-74.254;2022-08-19T06:18:22;100610.75;;;28.65;30.47
56630;BME280;42502;40.732;-74.254;2022-08-19T06:20:23;100606.69;;;28.63;30.53
56630;BME280;42502;40.732;-74.254;2022-08-19T06:22:24;100612.34;;;28.66;30.27
56630;BME280;42502;40.732;-74.254;2022-08-19T06:24:26;100608.28;;;28.67;30.40
56630;BME280;42502;40.732;-74.254;2022-08-19T06:26:27;100604.22;;;28.68;30.52
56630;BME280;42502;40.732;-74.254;2022-08-19T06:28:28;100597.72;;;28.68;30.75
56630;BME280;42502;40.732;-74.254;2022-08-19T06:30:29;100599.34;;;28.69;30.21
56630;BME280;42502;40.732;-74.254;2022-08-19T06:32:30;100603.41;;;28.68;30.66
56630;BME280;42502;40.732;-74.254;2022-08-19T06:34:32;100601.78;;;28.70;30.69
56630;BME280;42502;40.732;-74.254;2022-08-19T06:36:41;100604.63;;;28.70;30.39
56630;BME280;42502;40.732;-74.254;2022-08-19T06:38:43;100600.97;;;28.70;30.59
56630;BME280;42502;40.732;-74.254;2022-08-19T06:40:43;100610.69;;;28.73;30.67
56630;BME280;42502;40.732;-74.254;2022-08-19T06:42:44;100609.47;;;28.74;30.68
56630;BME280;42502;40.732;-74.254;2022-08-19T06:44:47;100608.69;;;28.73;30.33
56630;BME280;42502;40.732;-74.254;2022-08-19T06:46:49;100606.25;;;28.71;30.74
56630;BME280;42502;40.732;-74.254;2022-08-19T06:48:50;100610.28;;;28.74;30.62
56630;BME280;42502;40.732;-74.254;2022-08-19T06:50:53;100598.53;;;28.72;30.31
56630;BME280;42502;40.732;-74.254;2022-08-19T06:52:54;100603.38;;;28.75;30.70
56630;BME280;42502;40.732;-74.254;2022-08-19T06:54:55;100601.75;;;28.74;30.71
56630;BME280;42502;40.732;-74.254;2022-08-19T06:56:58;100609.06;;;28.75;30.49
56630;BME280;42502;40.732;-74.254;2022-08-19T06:59:04;100611.91;;;28.75;30.61
56630;BME280;42502;40.732;-74.254;2022-08-19T07:01:05;100614.34;;;28.77;30.53
56630;BME280;42502;40.732;-74.254;2022-08-19T07:03:06;100622.84;;;28.80;30.55
56630;BME280;42502;40.732;-74.254;2022-08-19T07:05:07;100617.97;;;28.77;30.47
56630;BME280;42502;40.732;-74.254;2022-08-19T07:07:11;100628.50;;;28.80;30.54
56630;BME280;42502;40.732;-74.254;2022-08-19T07:09:14;100625.69;;;28.80;30.36
56630;BME280;42502;40.732;-74.254;2022-08-19T07:11:17;100628.13;;;28.78;30.78
56630;BME280;42502;40.732;-74.254;2022-08-19T07:13:19;100630.56;;;28.80;30.75
56630;BME280;42502;40.732;-74.254;2022-08-19T07:15:22;100631.78;;;28.79;30.53
56630;BME280;42502;40.732;-74.254;2022-08-19T07:17:24;100631.81;;;28.75;30.54
56630;BME280;42502;40.732;-74.254;2022-08-19T07:19:26;100633.41;;;28.80;30.40
56630;BME280;42502;40.732;-74.254;2022-08-19T07:21:28;100641.53;;;28.81;30.41
56630;BME280;42502;40.732;-74.254;2022-08-19T07:23:29;100647.22;;;28.81;30.42
56630;BME280;42502;40.732;-74.254;2022-08-19T07:25:30;100644.34;;;28.81;30.62
56630;BME280;42502;40.732;-74.254;2022-08-19T07:27:30;100647.22;;;28.81;30.73
56630;BME280;42502;40.732;-74.254;2022-08-19T07:29:33;100634.63;;;28.79;30.69
56630;BME280;42502;40.732;-74.254;2022-08-19T07:31:34;100648.84;;;28.82;30.68
56630;BME280;42502;40.732;-74.254;2022-08-19T07:33:41;100642.31;;;28.82;30.79
56630;BME280;42502;40.732;-74.254;2022-08-19T07:35:43;100648.84;;;28.82;30.96
56630;BME280;42502;40.732;-74.254;2022-08-19T07:37:47;100641.53;;;28.81;30.56
56630;BME280;42502;40.732;-74.254;2022-08-19T07:39:48;100647.22;;;28.81;30.56
56630;BME280;42502;40.732;-74.254;2022-08-19T07:41:49;100647.22;;;28.81;30.51
56630;BME280;42502;40.732;-74.254;2022-08-19T07:43:51;100643.16;;;28.79;30.50
56630;BME280;42502;40.732;-74.254;2022-08-19T07:45:55;100646.38;;;28.84;30.52
56630;BME280;42502;40.732;-74.254;2022-08-19T07:47:58;100637.47;;;28.79;30.92
56630;BME280;42502;40.732;-74.254;2022-08-19T07:50:00;100650.06;;;28.81;30.77
56630;BME280;42502;40.732;-74.254;2022-08-19T07:52:05;100651.25;;;28.84;30.90
56630;BME280;42502;40.732;-74.254;2022-08-19T07:54:06;100654.50;;;28.86;30.73
56630;BME280;42502;40.732;-74.254;2022-08-19T07:56:07;100654.91;;;28.84;31.03
56630;BME280;42502;40.732;-74.254;2022-08-19T07:58:08;100654.09;;;28.84;30.98
56630;BME280;42502;40.732;-74.254;2022-08-19T08:00:09;100649.63;;;28.86;31.07
56630;BME280;42502;40.732;-74.254;2022-08-19T08:02:10;100652.47;;;28.86;30.89
56630;BME280;42502;40.732;-74.254;2022-08-19T08:04:11;100657.75;;;28.88;31.16
56630;BME280;42502;40.732;-74.254;2022-08-19T08:06:31;100655.31;;;28.86;30.67
56630;BME280;42502;40.732;-74.254;2022-08-19T08:08:50;100654.91;;;28.84;31.03
56630;BME280;42502;40.732;-74.254;2022-08-19T08:11:09;100650.06;;;28.81;30.99
56630;BME280;42502;40.732;-74.254;2022-08-19T08:13:11;100656.53;;;28.85;30.97
56630;BME280;42502;40.732;-74.254;2022-08-19T08:15:14;100658.56;;;28.88;31.16
56630;BME280;42502;40.732;-74.254;2022-08-19T08:17:25;100655.75;;;28.85;31.00
56630;BME280;42502;40.732;-74.254;2022-08-19T08:19:27;100665.03;;;28.89;31.34
56630;BME280;42502;40.732;-74.254;2022-08-19T08:21:28;100663.03;;;28.89;31.29
56630;BME280;42502;40.732;-74.254;2022-08-19T08:23:29;100659.34;;;28.89;31.23
56630;BME280;42502;40.732;-74.254;2022-08-19T08:25:30;100662.19;;;28.89;31.56
56630;BME280;42502;40.732;-74.254;2022-08-19T08:27:35;100657.34;;;28.89;31.46
56630;BME280;42502;40.732;-74.254;2022-08-19T08:29:36;100654.50;;;28.86;31.49
56630;BME280;42502;40.732;-74.254;2022-08-19T08:31:43;100664.28;;;28.85;31.32
56630;BME280;42502;40.732;-74.254;2022-08-19T08:33:44;100657.75;;;28.84;31.63
56630;BME280;42502;40.732;-74.254;2022-08-19T08:35:45;100661.41;;;28.88;31.55
56630;BME280;42502;40.732;-74.254;2022-08-19T08:37:47;100665.88;;;28.89;31.13
56630;BME280;42502;40.732;-74.254;2022-08-19T08:39:49;100668.72;;;28.89;31.07
56630;BME280;42502;40.732;-74.254;2022-08-19T08:42:15;100665.03;;;28.89;31.58
56630;BME280;42502;40.732;-74.254;2022-08-19T08:46:44;100669.13;;;28.88;31.40
56630;BME280;42502;40.732;-74.254;2022-08-19T08:48:57;100672.34;;;28.90;31.52
56630;BME280;42502;40.732;-74.254;2022-08-19T08:51:03;100667.47;;;28.91;31.27
56630;BME280;42502;40.732;-74.254;2022-08-19T08:53:06;100671.56;;;28.89;31.49
56630;BME280;42502;40.732;-74.254;2022-08-19T08:55:12;100672.34;;;28.90;31.27
56630;BME280;42502;40.732;-74.254;2022-08-19T08:57:15;100668.72;;;28.89;31.40
56630;BME280;42502;40.732;-74.254;2022-08-19T08:59:23;100674.75;;;28.95;31.49
56630;BME280;42502;40.732;-74.254;2022-08-19T09:01:26;100672.34;;;28.94;31.45
56630;BME280;42502;40.732;-74.254;2022-08-19T09:03:28;100661.78;;;28.91;31.14
56630;BME280;42502;40.732;-74.254;2022-08-19T09:05:40;100676.41;;;28.93;31.57
56630;BME280;42502;40.732;-74.254;2022-08-19T09:07:57;100676.41;;;28.93;31.45
56630;BME280;42502;40.732;-74.254;2022-08-19T09:10:14;100680.47;;;28.92;31.54
56630;BME280;42502;40.732;-74.254;2022-08-19T09:14:50;100684.53;;;28.91;31.52
56630;BME280;42502;40.732;-74.254;2022-08-19T09:16:52;100656.56;;;28.78;31.34
56630;BME280;42502;40.732;-74.254;2022-08-19T09:18:56;100684.53;;;28.91;31.48
56630;BME280;42502;40.732;-74.254;2022-08-19T09:20:58;100691.84;;;28.92;31.55
56630;BME280;42502;40.732;-74.254;2022-08-19T09:23:00;100685.72;;;28.97;31.51
56630;BME280;42502;40.732;-74.254;2022-08-19T09:25:01;100681.28;;;28.92;31.14
56630;BME280;42502;40.732;-74.254;2022-08-19T09:27:05;100690.22;;;28.91;31.29
56630;BME280;42502;40.732;-74.254;2022-08-19T09:29:06;100694.28;;;28.93;31.31
56630;BME280;42502;40.732;-74.254;2022-08-19T09:31:07;100691.47;;;28.89;31.50
56630;BME280;42502;40.732;-74.254;2022-08-19T09:33:07;100688.63;;;28.89;31.43
56630;BME280;42502;40.732;-74.254;2022-08-19T09:35:09;100688.19;;;28.91;31.38
56630;BME280;42502;40.732;-74.254;2022-08-19T09:37:11;100689.41;;;28.90;31.64
56630;BME280;42502;40.732;-74.254;2022-08-19T09:39:18;100690.22;;;28.91;31.59
56630;BME280;42502;40.732;-74.254;2022-08-19T09:41:21;100694.31;;;28.89;31.67
56630;BME280;42502;40.732;-74.254;2022-08-19T09:43:25;100686.56;;;28.90;31.54
56630;BME280;42502;40.732;-74.254;2022-08-19T09:45:29;100693.06;;;28.91;31.36
56630;BME280;42502;40.732;-74.254;2022-08-19T09:47:30;100687.78;;;28.89;31.89
56630;BME280;42502;40.732;-74.254;2022-08-19T09:49:33;100694.31;;;28.89;31.79
56630;BME280;42502;40.732;-74.254;2022-08-19T09:51:40;100702.41;;;28.87;31.72
56630;BME280;42502;40.732;-74.254;2022-08-19T09:53:43;100699.19;;;28.85;31.71
56630;BME280;42502;40.732;-74.254;2022-08-19T09:55:44;100707.69;;;28.89;31.41
56630;BME280;42502;40.732;-74.254;2022-08-19T09:57:47;100706.50;;;28.86;31.74
56630;BME280;42502;40.732;-74.254;2022-08-19T09:59:48;100706.09;;;28.88;31.62
56630;BME280;42502;40.732;-74.254;2022-08-19T10:01:50;100713.78;;;28.87;31.61
56630;BME280;42502;40.732;-74.254;2022-08-19T10:03:54;100718.25;;;28.88;32.07
56630;BME280;42502;40.732;-74.254;2022-08-19T10:05:58;100728.44;;;28.89;31.82
56630;BME280;42502;40.732;-74.254;2022-08-19T10:07:59;100728.81;;;28.84;31.82
56630;BME280;42502;40.732;-74.254;2022-08-19T10:10:02;100738.16;;;28.88;31.73
56630;BME280;42502;40.732;-74.254;2022-08-19T10:12:11;100732.91;;;28.87;31.54
56630;BME280;42502;40.732;-74.254;2022-08-19T10:14:12;100737.78;;;28.86;32.08
56630;BME280;42502;40.732;-74.254;2022-08-19T10:16:22;100730.88;;;28.80;31.85
56630;BME280;42502;40.732;-74.254;2022-08-19T10:18:26;100744.69;;;28.85;31.68
56630;BME280;42502;40.732;-74.254;2022-08-19T10:20:26;100739.00;;;28.85;32.16
56630;BME280;42502;40.732;-74.254;2022-08-19T10:22:33;100736.56;;;28.80;32.14
56630;BME280;42502;40.732;-74.254;2022-08-19T10:24:36;100744.69;;;28.85;32.14
56630;BME280;42502;40.732;-74.254;2022-08-19T10:26:39;100747.53;;;28.85;31.84
56630;BME280;42502;40.732;-74.254;2022-08-19T10:28:42;100753.19;;;28.85;31.76
56630;BME280;42502;40.732;-74.254;2022-08-19T10:30:43;100745.50;;;28.82;31.81
56630;BME280;42502;40.732;-74.254;2022-08-19T10:32:44;100746.72;;;28.85;31.87